createdAt,value
2023-03-26T00:01:39.662Z,2.63
2023-03-26T00:04:08.327Z,2.50
2023-03-26T00:06:39.940Z,2.50
2023-03-26T00:09:13.500Z,2.90
2023-03-26T00:11:42.067Z,2.35
2023-03-26T00:14:14.112Z,2.08
2023-03-26T00:16:42.743Z,2.63
2023-03-26T00:19:12.840Z,3.53
2023-03-26T00:21:41.460Z,2.22
2023-03-26T00:24:16.342Z,2.58
2023-03-26T00:26:45.045Z,2.60
2023-03-26T00:29:15.558Z,2.13
2023-03-26T00:31:46.696Z,1.50
2023-03-26T00:34:18.645Z,2.47
2023-03-26T00:36:46.981Z,3.63
2023-03-26T00:39:17.782Z,2.75
2023-03-26T00:41:45.057Z,2.40
2023-03-26T00:44:12.645Z,2.78
2023-03-26T00:46:40.113Z,2.40
2023-03-26T00:49:11.080Z,2.88
2023-03-26T00:51:39.342Z,3.28
2023-03-26T00:54:08.672Z,2.30
2023-03-26T00:56:36.115Z,1.98
2023-03-26T00:59:04.524Z,3.05
2023-03-26T01:01:32.543Z,2.28
2023-03-26T01:04:31.604Z,3.10
2023-03-26T01:07:16.943Z,2.67
2023-03-26T01:09:50.386Z,3.25
2023-03-26T01:12:25.637Z,3.03
2023-03-26T01:15:01.134Z,3.35
2023-03-26T01:17:34.213Z,3.35
2023-03-26T01:20:26.962Z,3.38
2023-03-26T01:23:05.503Z,4.57
2023-03-26T01:25:44.565Z,3.08
2023-03-26T01:28:12.754Z,2.33
2023-03-26T01:30:58.721Z,3.40
2023-03-26T01:33:46.587Z,3.90
2023-03-26T01:36:36.794Z,2.30
2023-03-26T01:40:07.465Z,1.95
2023-03-26T01:42:51.459Z,1.90
2023-03-26T01:45:26.438Z,1.73
2023-03-26T01:47:55.520Z,2.05
2023-03-26T01:50:22.781Z,1.20
2023-03-26T01:52:50.570Z,1.58
2023-03-26T01:55:19.052Z,1.70
2023-03-26T01:58:03.892Z,1.10
2023-03-26T02:00:44.216Z,1.15
2023-03-26T02:03:31.611Z,1.23
2023-03-26T02:06:37.587Z,1.85
2023-03-26T02:09:11.716Z,1.27
2023-03-26T02:11:41.166Z,1.15
2023-03-26T02:14:10.119Z,0.85
2023-03-26T02:16:37.347Z,1.27
2023-03-26T02:19:05.498Z,1.88
2023-03-26T02:21:34.309Z,0.95
2023-03-26T02:24:04.949Z,0.90
2023-03-26T02:26:37.885Z,0.90
2023-03-26T02:29:14.241Z,1.75
2023-03-26T02:31:44.417Z,1.42
2023-03-26T02:34:12.168Z,1.83
2023-03-26T02:36:43.340Z,1.05
2023-03-26T02:39:14.313Z,1.13
2023-03-26T02:41:44.917Z,1.13
2023-03-26T02:44:13.353Z,1.92
2023-03-26T02:47:12.556Z,2.72
2023-03-26T02:49:58.488Z,1.30
2023-03-26T02:52:37.075Z,1.77
2023-03-26T02:55:05.019Z,1.80
2023-03-26T02:57:33.200Z,1.23
2023-03-26T03:00:17.450Z,2.25
2023-03-26T03:02:48.680Z,1.92
2023-03-26T03:05:34.073Z,2.97
2023-03-26T03:08:39.998Z,1.77
2023-03-26T03:11:31.357Z,1.67
2023-03-26T03:13:58.813Z,4.00
2023-03-26T03:16:28.768Z,1.33
2023-03-26T03:18:58.583Z,2.58
2023-03-26T03:21:35.806Z,1.40
2023-03-26T03:24:03.344Z,2.35
2023-03-26T03:26:36.626Z,2.22
2023-03-26T03:29:32.964Z,1.50
2023-03-26T03:32:22.576Z,1.42
2023-03-26T03:34:52.192Z,2.05
2023-03-26T03:37:20.640Z,1.60
2023-03-26T03:42:22.755Z,2.17
2023-03-26T03:44:53.020Z,2.25
2023-03-26T03:47:53.427Z,2.55
2023-03-26T03:50:33.715Z,2.00
2023-03-26T03:53:29.436Z,2.63
2023-03-26T03:56:02.746Z,2.03
2023-03-26T03:58:51.598Z,2.22
2023-03-26T04:01:30.794Z,1.75
2023-03-26T04:04:07.985Z,1.88
2023-03-26T04:06:58.264Z,2.08
2023-03-26T04:09:30.975Z,1.35
2023-03-26T04:12:03.194Z,2.10
2023-03-26T04:14:39.129Z,1.70
2023-03-26T04:17:15.772Z,1.85
2023-03-26T04:19:45.638Z,2.35
2023-03-26T04:22:14.613Z,1.70
2023-03-26T04:24:54.430Z,1.50
2023-03-26T04:27:35.468Z,1.38
2023-03-26T04:30:20.861Z,2.22
2023-03-26T04:33:06.952Z,1.35
2023-03-26T04:35:41.870Z,1.70
2023-03-26T04:40:50.552Z,2.13
2023-03-26T04:43:35.588Z,2.30
2023-03-26T04:46:06.053Z,2.85
2023-03-26T04:48:39.821Z,7.57
2023-03-26T04:51:18.510Z,4.25
2023-03-26T04:53:59.688Z,5.40
2023-03-26T04:57:01.169Z,4.55
2023-03-26T04:59:35.354Z,4.82
2023-03-26T05:02:08.211Z,4.38
2023-03-26T05:04:46.509Z,5.35
2023-03-26T05:07:21.437Z,3.92
2023-03-26T05:09:52.084Z,3.42
2023-03-26T05:12:24.229Z,2.63
2023-03-26T05:15:05.921Z,3.10
2023-03-26T05:17:46.469Z,2.95
2023-03-26T05:20:27.318Z,3.45
2023-03-26T05:22:55.267Z,3.00
2023-03-26T05:25:26.997Z,1.88
2023-03-26T05:27:55.473Z,3.53
2023-03-26T05:30:27.096Z,2.47
2023-03-26T05:32:59.904Z,2.97
2023-03-26T05:35:32.030Z,3.08
2023-03-26T05:37:59.605Z,2.13
2023-03-26T05:40:27.058Z,2.03
2023-03-26T05:42:57.939Z,3.20
2023-03-26T05:45:48.358Z,2.17
2023-03-26T05:48:24.906Z,2.95
2023-03-26T05:50:56.186Z,2.30
2023-03-26T05:53:27.525Z,2.25
2023-03-26T05:56:29.772Z,2.92
2023-03-26T05:59:16.128Z,4.10
2023-03-26T06:02:03.647Z,3.05
2023-03-26T06:04:51.712Z,5.78
2023-03-26T06:07:50.279Z,4.55
2023-03-26T06:10:20.311Z,2.95
2023-03-26T06:12:47.315Z,3.22
2023-03-26T06:15:15.785Z,6.40
2023-03-26T06:18:05.985Z,2.35
2023-03-26T06:23:25.367Z,4.35
2023-03-26T06:26:06.538Z,3.42
2023-03-26T06:28:52.695Z,3.80
2023-03-26T06:31:34.775Z,4.95
2023-03-26T06:34:18.236Z,4.85
2023-03-26T06:36:46.140Z,3.15
2023-03-26T06:39:13.140Z,2.60
2023-03-26T06:41:49.514Z,3.00
2023-03-26T06:44:46.177Z,4.18
2023-03-26T06:47:34.064Z,3.63
2023-03-26T06:50:33.453Z,2.17
2023-03-26T06:53:13.499Z,3.80
2023-03-26T06:55:58.238Z,3.58
2023-03-26T06:58:44.322Z,3.40
2023-03-26T07:01:29.888Z,5.00
2023-03-26T07:04:16.277Z,3.50
2023-03-26T07:07:02.390Z,2.78
2023-03-26T07:09:49.120Z,2.65
2023-03-26T07:12:34.839Z,3.53
2023-03-26T07:15:21.322Z,3.10
2023-03-26T07:17:48.534Z,4.18
2023-03-26T07:20:22.729Z,2.97
2023-03-26T07:22:51.045Z,4.55
2023-03-26T07:25:44.800Z,3.00
2023-03-26T07:29:03.968Z,4.28
2023-03-26T07:32:27.163Z,4.47
2023-03-26T07:35:45.161Z,3.65
2023-03-26T07:39:42.630Z,3.78
2023-03-26T07:43:21.456Z,4.53
2023-03-26T07:46:14.329Z,2.33
2023-03-26T07:49:02.127Z,4.82
2023-03-26T07:51:39.518Z,3.70
2023-03-26T07:54:23.901Z,3.55
2023-03-26T07:57:46.778Z,2.25
2023-03-26T08:00:57.372Z,2.88
2023-03-26T08:03:38.490Z,4.13
2023-03-26T08:06:37.680Z,1.95
2023-03-26T08:09:49.057Z,4.68
2023-03-26T08:12:48.397Z,2.67
2023-03-26T08:15:45.229Z,3.45
2023-03-26T08:18:44.715Z,2.70
2023-03-26T08:21:20.808Z,2.47
2023-03-26T08:24:18.036Z,2.50
2023-03-26T08:27:04.447Z,3.40
2023-03-26T08:30:01.830Z,2.45
2023-03-26T08:32:30.632Z,1.55
2023-03-26T08:35:00.301Z,3.28
2023-03-26T08:37:29.202Z,1.42
2023-03-26T08:39:56.640Z,2.20
2023-03-26T08:43:04.337Z,2.80
2023-03-26T08:46:12.684Z,2.47
2023-03-26T08:49:21.267Z,2.45
2023-03-26T08:52:28.438Z,2.47
2023-03-26T08:55:27.751Z,2.22
2023-03-26T08:58:38.367Z,3.67
2023-03-26T09:01:46.631Z,2.90
2023-03-26T09:05:07.200Z,1.80
2023-03-26T09:08:00.873Z,2.08
2023-03-26T09:11:15.884Z,2.65
2023-03-26T09:14:25.512Z,1.88
2023-03-26T09:17:17.819Z,3.53
2023-03-26T09:20:35.830Z,1.38
2023-03-26T09:23:39.114Z,2.38
2023-03-26T09:26:25.363Z,3.65
2023-03-26T09:29:42.403Z,4.95
2023-03-26T09:33:02.004Z,3.03
2023-03-26T09:35:52.104Z,2.40
2023-03-26T09:39:08.852Z,2.47
2023-03-26T09:42:04.925Z,2.90
2023-03-26T09:45:39.537Z,1.80
2023-03-26T09:48:25.519Z,1.90
2023-03-26T09:51:13.491Z,2.50
2023-03-26T09:54:46.510Z,1.45
2023-03-26T09:57:43.458Z,2.20
2023-03-26T10:00:35.250Z,2.08
2023-03-26T10:03:41.282Z,2.25
2023-03-26T10:06:28.306Z,1.67
2023-03-26T10:09:17.670Z,2.17
2023-03-26T10:12:25.107Z,1.88
2023-03-26T10:15:31.428Z,2.80
2023-03-26T10:18:27.444Z,2.55
2023-03-26T10:21:45.922Z,3.67
2023-03-26T10:24:38.944Z,1.45
2023-03-26T10:27:42.464Z,3.13
2023-03-26T10:30:37.521Z,1.63
2023-03-26T10:33:30.974Z,1.50
2023-03-26T10:36:15.813Z,3.13
2023-03-26T10:39:36.360Z,1.67
2023-03-26T10:42:38.539Z,2.20
2023-03-26T10:45:26.005Z,1.10
2023-03-26T10:48:08.250Z,4.22
2023-03-26T10:51:00.374Z,1.67
2023-03-26T10:54:02.542Z,1.73
2023-03-26T10:56:41.387Z,1.77
2023-03-26T10:59:16.571Z,1.77
2023-03-26T11:02:03.380Z,2.08
2023-03-26T11:05:00.875Z,2.25
2023-03-26T11:07:43.465Z,2.83
2023-03-26T11:10:42.347Z,1.58
2023-03-26T11:13:50.940Z,1.38
2023-03-26T11:16:36.625Z,1.73
2023-03-26T11:19:33.693Z,1.83
2023-03-26T11:22:42.209Z,2.55
2023-03-26T11:25:40.721Z,0.98
2023-03-26T11:28:32.854Z,2.00
2023-03-26T11:31:11.817Z,1.33
2023-03-26T11:33:48.466Z,1.52
2023-03-26T11:36:23.820Z,1.23
2023-03-26T11:38:55.748Z,1.95
2023-03-26T11:41:33.410Z,1.95
2023-03-26T11:44:27.746Z,3.50
2023-03-26T11:47:10.382Z,1.65
2023-03-26T11:49:40.800Z,2.90
2023-03-26T11:52:12.226Z,2.60
2023-03-26T11:54:39.407Z,2.38
2023-03-26T11:57:16.050Z,2.13
2023-03-26T11:59:57.187Z,5.18
2023-03-26T12:02:38.341Z,5.07
2023-03-26T12:05:15.756Z,3.75
2023-03-26T12:08:02.410Z,2.75
2023-03-26T12:10:39.143Z,4.32
2023-03-26T12:13:36.536Z,5.70
2023-03-26T12:16:17.511Z,4.63
2023-03-26T12:18:57.928Z,4.78
2023-03-26T12:21:25.177Z,5.30
2023-03-26T12:24:04.834Z,4.03
2023-03-26T12:26:43.196Z,3.83
2023-03-26T12:29:14.895Z,4.15
2023-03-26T12:31:49.291Z,2.28
2023-03-26T12:34:22.945Z,2.58
2023-03-26T12:36:55.414Z,3.03
2023-03-26T12:40:08.610Z,3.30
2023-03-26T12:44:48.305Z,5.10
2023-03-26T12:47:55.499Z,7.05
2023-03-26T12:48:46.247Z,5.50
2023-03-26T12:51:47.556Z,3.67
2023-03-26T12:54:59.214Z,4.72
2023-03-26T12:58:13.890Z,2.95
2023-03-26T13:01:22.603Z,1.98
2023-03-26T13:04:21.852Z,2.20
2023-03-26T13:07:09.847Z,2.20
2023-03-26T13:10:32.902Z,1.85
2023-03-26T13:13:53.382Z,2.15
2023-03-26T13:16:56.915Z,1.90
2023-03-26T13:19:48.366Z,2.15
2023-03-26T13:23:17.524Z,2.88
2023-03-26T13:26:26.685Z,2.97
2023-03-26T13:29:38.108Z,1.75
2023-03-26T13:32:52.216Z,2.08
2023-03-26T13:35:34.552Z,2.45
2023-03-26T13:38:18.317Z,3.38
2023-03-26T13:41:07.073Z,3.40
2023-03-26T13:44:18.281Z,2.42
2023-03-26T13:47:04.618Z,2.55
2023-03-26T13:49:46.748Z,2.40
2023-03-26T13:52:48.510Z,3.30
2023-03-26T13:55:43.995Z,1.73
2023-03-26T13:58:22.126Z,2.67
2023-03-26T14:01:19.415Z,3.15
2023-03-26T14:04:23.419Z,3.33
2023-03-26T14:07:10.460Z,4.32
2023-03-26T14:10:08.725Z,3.58
2023-03-26T14:13:02.838Z,2.63
2023-03-26T14:15:51.853Z,1.92
2023-03-26T14:18:39.960Z,2.80
2023-03-26T14:21:45.574Z,2.75
2023-03-26T14:24:47.235Z,1.98
2023-03-26T14:27:48.986Z,2.78
2023-03-26T14:30:54.522Z,2.03
2023-03-26T14:34:04.880Z,5.40
2023-03-26T14:37:06.474Z,5.35
2023-03-26T14:39:58.670Z,4.87
2023-03-26T14:43:09.841Z,4.37
2023-03-26T14:46:02.494Z,6.03
2023-03-26T14:49:02.650Z,3.78
2023-03-26T14:52:13.642Z,5.88
2023-03-26T14:54:46.655Z,4.68
2023-03-26T14:58:02.102Z,6.15
2023-03-26T15:01:23.124Z,7.60
2023-03-26T15:04:39.853Z,9.05
2023-03-26T15:07:51.450Z,4.97
2023-03-26T15:10:55.535Z,4.43
2023-03-26T15:14:03.677Z,6.65
2023-03-26T15:17:18.686Z,4.55
2023-03-26T15:20:32.017Z,4.18
2023-03-26T15:23:40.745Z,4.68
2023-03-26T15:26:46.583Z,4.95
2023-03-26T15:29:52.394Z,4.28
2023-03-26T15:32:49.666Z,4.60
2023-03-26T15:35:51.754Z,3.30
2023-03-26T15:39:27.666Z,3.15
2023-03-26T15:42:11.674Z,3.28
2023-03-26T15:44:54.527Z,2.00
2023-03-26T15:48:15.115Z,2.70
2023-03-26T15:51:04.386Z,2.30
2023-03-26T15:53:49.382Z,2.50
2023-03-26T15:56:53.219Z,3.15
2023-03-26T15:59:52.716Z,2.95
2023-03-26T16:02:41.848Z,2.90
2023-03-26T16:05:44.780Z,3.08
2023-03-26T16:08:40.663Z,2.88
2023-03-26T16:11:13.196Z,2.00
2023-03-26T16:13:49.991Z,2.30
2023-03-26T16:16:45.224Z,2.60
2023-03-26T16:19:22.648Z,2.83
2023-03-26T16:22:01.010Z,2.50
2023-03-26T16:24:36.306Z,3.78
2023-03-26T16:27:13.114Z,2.40
2023-03-26T16:30:09.567Z,3.13
2023-03-26T16:32:46.997Z,3.05
2023-03-26T16:35:14.138Z,3.65
2023-03-26T16:37:50.709Z,2.72
2023-03-26T16:40:17.879Z,2.85
2023-03-26T16:43:24.571Z,2.63
2023-03-26T16:46:36.661Z,2.17
2023-03-26T16:49:27.625Z,2.78
2023-03-26T16:52:23.513Z,2.60
2023-03-26T16:55:06.900Z,3.15
2023-03-26T16:58:11.923Z,2.97
2023-03-26T17:01:06.259Z,1.92
2023-03-26T17:03:52.214Z,3.03
2023-03-26T17:06:47.842Z,2.20
2023-03-26T17:09:29.048Z,2.75
2023-03-26T17:12:23.897Z,2.15
2023-03-26T17:15:26.385Z,2.42
2023-03-26T17:18:36.380Z,2.05
2023-03-26T17:21:46.007Z,2.05
2023-03-26T17:24:58.053Z,1.83
2023-03-26T17:27:51.570Z,2.28
2023-03-26T17:31:04.827Z,3.53
2023-03-26T17:33:38.703Z,5.43
2023-03-26T17:36:12.906Z,5.68
2023-03-26T17:38:40.198Z,6.65
2023-03-26T17:41:35.803Z,6.95
2023-03-26T17:45:09.597Z,6.72
2023-03-26T17:48:07.179Z,6.60
2023-03-26T17:51:00.282Z,7.38
2023-03-26T17:53:32.221Z,6.82
2023-03-26T17:56:12.457Z,5.63
2023-03-26T17:58:47.924Z,7.10
2023-03-26T18:01:37.267Z,7.47
2023-03-26T18:04:24.734Z,8.57
2023-03-26T18:07:29.593Z,9.38
2023-03-26T18:10:47.793Z,8.80
2023-03-26T18:14:19.645Z,8.85
2023-03-26T18:16:54.055Z,9.88
2023-03-26T18:19:23.580Z,8.55
2023-03-26T18:22:04.635Z,9.45
2023-03-26T18:24:38.807Z,8.52
2023-03-26T18:27:19.237Z,9.60
2023-03-26T18:30:02.689Z,8.85
2023-03-26T18:32:34.057Z,8.73
2023-03-26T18:35:23.207Z,8.77
2023-03-26T18:37:59.368Z,12.40
2023-03-26T18:40:41.032Z,12.05
2023-03-26T18:43:28.799Z,11.57
2023-03-26T18:46:00.921Z,11.35
2023-03-26T18:48:29.380Z,10.30
2023-03-26T18:51:08.176Z,9.93
2023-03-26T18:53:49.441Z,10.80
2023-03-26T18:56:43.396Z,10.15
2023-03-26T18:59:35.338Z,9.30
2023-03-26T19:02:13.314Z,11.57
2023-03-26T19:04:46.273Z,10.38
2023-03-26T19:07:26.569Z,12.02
2023-03-26T19:09:56.625Z,10.30
2023-03-26T19:12:32.693Z,10.20
2023-03-26T19:15:13.396Z,10.05
2023-03-26T19:17:47.289Z,9.77
2023-03-26T19:20:44.180Z,10.35
2023-03-26T19:23:19.697Z,11.07
2023-03-26T19:25:55.001Z,10.35
2023-03-26T19:28:27.986Z,7.97
2023-03-26T19:31:06.614Z,5.88
2023-03-26T19:33:41.539Z,6.50
2023-03-26T19:36:21.441Z,4.88
2023-03-26T19:38:48.506Z,5.35
2023-03-26T19:41:25.155Z,5.97
2023-03-26T19:44:00.605Z,4.93
2023-03-26T19:46:33.919Z,4.15
2023-03-26T19:49:42.027Z,4.13
2023-03-26T19:52:15.975Z,3.22
2023-03-26T19:55:00.089Z,5.00
2023-03-26T19:57:32.727Z,5.55
2023-03-26T20:00:00.303Z,4.47
2023-03-26T20:02:32.367Z,5.68
2023-03-26T20:04:59.664Z,4.63
2023-03-26T20:07:35.756Z,4.00
2023-03-26T20:10:08.076Z,4.18
2023-03-26T20:12:35.829Z,6.57
2023-03-26T20:15:30.476Z,5.72
2023-03-26T20:17:57.936Z,5.47
2023-03-26T20:20:27.261Z,4.82
2023-03-26T20:22:55.555Z,5.82
2023-03-26T20:25:34.075Z,5.63
2023-03-26T20:28:01.845Z,6.75
2023-03-26T20:30:37.550Z,6.55
2023-03-26T20:33:12.588Z,6.97
2023-03-26T20:35:41.719Z,5.95
2023-03-26T20:38:10.576Z,7.75
2023-03-26T20:40:39.125Z,5.18
2023-03-26T20:43:22.011Z,4.57
2023-03-26T20:45:49.785Z,6.88
2023-03-26T20:48:17.319Z,5.85
2023-03-26T20:50:50.792Z,4.78
2023-03-26T20:53:20.496Z,5.18
2023-03-26T20:55:49.718Z,4.88
2023-03-26T20:58:31.848Z,6.53
2023-03-26T21:01:03.485Z,4.20
2023-03-26T21:03:31.333Z,5.20
2023-03-26T21:06:04.596Z,5.00
2023-03-26T21:08:35.785Z,4.80
2023-03-26T21:11:11.865Z,4.20
2023-03-26T21:14:27.515Z,4.22
2023-03-26T21:16:55.228Z,5.85
2023-03-26T21:19:23.371Z,5.75
2023-03-26T21:22:09.367Z,4.90
2023-03-26T21:24:44.191Z,4.68
2023-03-26T21:27:27.274Z,5.05
2023-03-26T21:29:56.224Z,3.95
2023-03-26T21:32:24.239Z,5.70
2023-03-26T21:37:24.087Z,3.80
2023-03-26T21:39:52.517Z,3.72
2023-03-26T21:42:20.195Z,4.22
2023-03-26T21:44:48.228Z,4.43
2023-03-26T21:47:16.021Z,4.13
2023-03-26T21:49:44.000Z,3.53
2023-03-26T21:52:15.394Z,3.15
2023-03-26T21:54:43.671Z,4.13
2023-03-26T21:57:37.824Z,3.88
2023-03-26T22:00:55.496Z,4.90
2023-03-26T22:03:56.055Z,3.92
2023-03-26T22:06:43.256Z,6.78
2023-03-26T22:09:15.024Z,4.57
2023-03-26T22:11:44.347Z,4.03
2023-03-26T22:14:13.308Z,5.00
2023-03-26T22:16:41.871Z,5.07
2023-03-26T22:19:09.498Z,5.70
2023-03-26T22:21:37.192Z,5.95
2023-03-26T22:24:04.879Z,6.03
2023-03-26T22:26:32.852Z,5.72
2023-03-26T22:29:00.148Z,6.25
2023-03-26T22:31:28.086Z,5.40
2023-03-26T22:33:56.264Z,5.20
2023-03-26T22:36:25.631Z,5.40
2023-03-26T22:38:54.325Z,5.38
2023-03-26T22:41:23.609Z,5.72
2023-03-26T22:43:54.601Z,5.93
2023-03-26T22:46:22.631Z,7.38
2023-03-26T22:48:51.088Z,6.55
2023-03-26T22:51:19.163Z,6.03
2023-03-26T22:53:46.523Z,8.45
2023-03-26T22:56:15.759Z,6.55
2023-03-26T22:58:43.125Z,11.13
2023-03-26T23:01:19.016Z,8.68
2023-03-26T23:03:46.726Z,9.95
2023-03-26T23:06:15.344Z,9.23
2023-03-26T23:08:43.082Z,7.82
2023-03-26T23:11:18.628Z,9.20
2023-03-26T23:13:47.917Z,9.70
2023-03-26T23:16:17.401Z,8.13
2023-03-26T23:18:45.337Z,7.43
2023-03-26T23:21:16.565Z,8.02
2023-03-26T23:23:44.323Z,5.53
2023-03-26T23:26:12.497Z,5.45
2023-03-26T23:28:41.192Z,4.18
2023-03-26T23:31:12.654Z,5.63
2023-03-26T23:33:47.572Z,5.28
2023-03-26T23:36:18.920Z,3.97
2023-03-26T23:38:48.452Z,4.28
2023-03-26T23:41:21.375Z,4.05
2023-03-26T23:43:54.763Z,3.53
2023-03-26T23:46:30.621Z,4.63
2023-03-26T23:49:05.271Z,3.38
2023-03-26T23:51:33.597Z,5.45
2023-03-26T23:54:02.587Z,4.65
2023-03-26T23:56:30.562Z,4.05
2023-03-26T23:58:59.300Z,5.75
